sensor_id;sensor_type;location;lat;lon;timestamp;P1;durP1;ratioP1;P2;durP2;ratioP2
30553;SDS011;17335;50.720;7.452;2022-09-13T00:00:57;6.80;;;2.58;;
30553;SDS011;17335;50.720;7.452;2022-09-13T00:03:25;4.72;;;2.85;;
30553;SDS011;17335;50.720;7.452;2022-09-13T00:05:52;3.58;;;2.53;;
30553;SDS011;17335;50.720;7.452;2022-09-13T00:08:18;4.45;;;2.88;;
30553;SDS011;17335;50.720;7.452;2022-09-13T00:10:45;4.53;;;2.53;;
30553;SDS011;17335;50.720;7.452;2022-09-13T00:13:12;4.40;;;2.83;;
30553;SDS011;17335;50.720;7.452;2022-09-13T00:15:44;4.35;;;2.63;;
30553;SDS011;17335;50.720;7.452;2022-09-13T00:18:15;5.65;;;2.75;;
30553;SDS011;17335;50.720;7.452;2022-09-13T00:20:42;5.22;;;2.58;;
30553;SDS011;17335;50.720;7.452;2022-09-13T00:23:09;4.20;;;2.60;;
30553;SDS011;17335;50.720;7.452;2022-09-13T00:25:37;4.38;;;2.70;;
30553;SDS011;17335;50.720;7.452;2022-09-13T00:28:04;5.85;;;2.88;;
30553;SDS011;17335;50.720;7.452;2022-09-13T00:30:30;4.20;;;2.60;;
30553;SDS011;17335;50.720;7.452;2022-09-13T00:32:57;4.10;;;2.70;;
30553;SDS011;17335;50.720;7.452;2022-09-13T00:35:24;4.32;;;2.72;;
30553;SDS011;17335;50.720;7.452;2022-09-13T00:37:50;4.88;;;2.60;;
30553;SDS011;17335;50.720;7.452;2022-09-13T00:40:17;4.50;;;2.90;;
30553;SDS011;17335;50.720;7.452;2022-09-13T00:42:43;4.32;;;2.60;;
30553;SDS011;17335;50.720;7.452;2022-09-13T00:53:01;4.63;;;2.80;;
30553;SDS011;17335;50.720;7.452;2022-09-13T00:55:49;5.53;;;3.00;;
30553;SDS011;17335;50.720;7.452;2022-09-13T00:58:28;5.88;;;3.40;;
30553;SDS011;17335;50.720;7.452;2022-09-13T01:00:59;6.60;;;3.10;;
30553;SDS011;17335;50.720;7.452;2022-09-13T01:03:29;5.80;;;2.75;;
30553;SDS011;17335;50.720;7.452;2022-09-13T01:06:09;5.03;;;2.97;;
30553;SDS011;17335;50.720;7.452;2022-09-13T01:08:39;5.22;;;3.33;;
30553;SDS011;17335;50.720;7.452;2022-09-13T01:11:12;6.97;;;3.97;;
30553;SDS011;17335;50.720;7.452;2022-09-13T01:13:45;9.15;;;3.58;;
30553;SDS011;17335;50.720;7.452;2022-09-13T01:16:13;5.80;;;3.67;;
30553;SDS011;17335;50.720;7.452;2022-09-13T01:18:39;6.18;;;3.15;;
30553;SDS011;17335;50.720;7.452;2022-09-13T01:24:24;5.22;;;3.33;;
30553;SDS011;17335;50.720;7.452;2022-09-13T01:46:31;5.38;;;3.05;;
30553;SDS011;17335;50.720;7.452;2022-09-13T01:52:32;4.35;;;2.80;;
30553;SDS011;17335;50.720;7.452;2022-09-13T01:55:08;6.28;;;3.03;;
30553;SDS011;17335;50.720;7.452;2022-09-13T01:57:44;4.70;;;2.65;;
30553;SDS011;17335;50.720;7.452;2022-09-13T02:00:14;7.53;;;2.63;;
30553;SDS011;17335;50.720;7.452;2022-09-13T02:02:47;6.60;;;3.25;;
30553;SDS011;17335;50.720;7.452;2022-09-13T02:08:04;4.55;;;2.90;;
30553;SDS011;17335;50.720;7.452;2022-09-13T02:10:37;8.60;;;3.50;;
30553;SDS011;17335;50.720;7.452;2022-09-13T02:13:09;3.97;;;2.38;;
30553;SDS011;17335;50.720;7.452;2022-09-13T02:15:44;6.50;;;2.75;;
30553;SDS011;17335;50.720;7.452;2022-09-13T02:18:20;4.50;;;3.05;;
30553;SDS011;17335;50.720;7.452;2022-09-13T02:20:53;4.90;;;3.03;;
30553;SDS011;17335;50.720;7.452;2022-09-13T02:23:33;6.15;;;2.97;;
30553;SDS011;17335;50.720;7.452;2022-09-13T02:26:06;4.97;;;3.00;;
30553;SDS011;17335;50.720;7.452;2022-09-13T02:28:36;6.07;;;3.05;;
30553;SDS011;17335;50.720;7.452;2022-09-13T02:31:07;4.78;;;2.85;;
30553;SDS011;17335;50.720;7.452;2022-09-13T02:33:36;4.95;;;2.60;;
30553;SDS011;17335;50.720;7.452;2022-09-13T02:36:12;6.03;;;3.25;;
30553;SDS011;17335;50.720;7.452;2022-09-13T02:47:08;6.82;;;3.08;;
30553;SDS011;17335;50.720;7.452;2022-09-13T02:55:28;4.35;;;2.92;;
30553;SDS011;17335;50.720;7.452;2022-09-13T02:58:24;4.05;;;2.63;;
30553;SDS011;17335;50.720;7.452;2022-09-13T03:00:57;4.45;;;2.55;;
30553;SDS011;17335;50.720;7.452;2022-09-13T03:03:24;6.35;;;2.63;;
30553;SDS011;17335;50.720;7.452;2022-09-13T03:05:51;4.10;;;2.47;;
30553;SDS011;17335;50.720;7.452;2022-09-13T03:08:18;4.97;;;2.70;;
30553;SDS011;17335;50.720;7.452;2022-09-13T03:10:50;4.30;;;2.50;;
30553;SDS011;17335;50.720;7.452;2022-09-13T03:22:05;7.38;;;3.22;;
30553;SDS011;17335;50.720;7.452;2022-09-13T03:27:14;5.88;;;3.55;;
30553;SDS011;17335;50.720;7.452;2022-09-13T03:35:28;6.65;;;3.72;;
30553;SDS011;17335;50.720;7.452;2022-09-13T03:43:15;6.32;;;3.88;;
30553;SDS011;17335;50.720;7.452;2022-09-13T03:45:48;9.55;;;3.67;;
30553;SDS011;17335;50.720;7.452;2022-09-13T03:48:17;9.57;;;4.35;;
30553;SDS011;17335;50.720;7.452;2022-09-13T03:50:45;6.20;;;4.10;;
30553;SDS011;17335;50.720;7.452;2022-09-13T03:53:13;6.82;;;3.83;;
30553;SDS011;17335;50.720;7.452;2022-09-13T03:55:45;6.18;;;3.88;;
30553;SDS011;17335;50.720;7.452;2022-09-13T03:58:12;6.47;;;3.72;;
30553;SDS011;17335;50.720;7.452;2022-09-13T04:00:40;5.75;;;3.83;;
30553;SDS011;17335;50.720;7.452;2022-09-13T04:03:06;6.72;;;3.65;;
30553;SDS011;17335;50.720;7.452;2022-09-13T04:05:34;7.13;;;4.03;;
30553;SDS011;17335;50.720;7.452;2022-09-13T04:08:01;7.22;;;4.03;;
30553;SDS011;17335;50.720;7.452;2022-09-13T04:10:30;6.50;;;3.70;;
30553;SDS011;17335;50.720;7.452;2022-09-13T04:12:58;9.52;;;4.30;;
30553;SDS011;17335;50.720;7.452;2022-09-13T04:15:30;6.32;;;3.90;;
30553;SDS011;17335;50.720;7.452;2022-09-13T04:17:57;6.72;;;4.00;;
30553;SDS011;17335;50.720;7.452;2022-09-13T04:20:23;6.93;;;4.07;;
30553;SDS011;17335;50.720;7.452;2022-09-13T04:22:54;7.57;;;3.38;;
30553;SDS011;17335;50.720;7.452;2022-09-13T04:25:21;6.22;;;3.65;;
30553;SDS011;17335;50.720;7.452;2022-09-13T04:27:52;6.55;;;3.70;;
30553;SDS011;17335;50.720;7.452;2022-09-13T04:30:20;7.70;;;3.85;;
30553;SDS011;17335;50.720;7.452;2022-09-13T04:32:47;6.70;;;3.58;;
30553;SDS011;17335;50.720;7.452;2022-09-13T04:35:13;6.50;;;3.97;;
30553;SDS011;17335;50.720;7.452;2022-09-13T04:37:44;7.72;;;3.75;;
30553;SDS011;17335;50.720;7.452;2022-09-13T04:40:11;5.63;;;3.17;;
30553;SDS011;17335;50.720;7.452;2022-09-13T04:42:38;6.43;;;3.30;;
30553;SDS011;17335;50.720;7.452;2022-09-13T04:45:05;4.68;;;3.13;;
30553;SDS011;17335;50.720;7.452;2022-09-13T04:47:32;4.93;;;3.20;;
30553;SDS011;17335;50.720;7.452;2022-09-13T04:49:58;5.38;;;2.80;;
30553;SDS011;17335;50.720;7.452;2022-09-13T04:52:24;6.22;;;3.72;;
30553;SDS011;17335;50.720;7.452;2022-09-13T04:54:51;7.40;;;3.50;;
30553;SDS011;17335;50.720;7.452;2022-09-13T04:57:17;7.53;;;3.80;;
30553;SDS011;17335;50.720;7.452;2022-09-13T04:59:44;4.75;;;3.38;;
30553;SDS011;17335;50.720;7.452;2022-09-13T05:02:10;5.00;;;3.03;;
30553;SDS011;17335;50.720;7.452;2022-09-13T05:04:36;6.25;;;3.63;;
30553;SDS011;17335;50.720;7.452;2022-09-13T05:07:03;5.55;;;3.30;;
30553;SDS011;17335;50.720;7.452;2022-09-13T05:09:30;6.20;;;3.40;;
30553;SDS011;17335;50.720;7.452;2022-09-13T05:11:56;8.68;;;3.33;;
30553;SDS011;17335;50.720;7.452;2022-09-13T05:14:22;5.97;;;3.80;;
30553;SDS011;17335;50.720;7.452;2022-09-13T05:16:49;6.93;;;3.80;;
30553;SDS011;17335;50.720;7.452;2022-09-13T05:19:15;6.22;;;3.75;;
30553;SDS011;17335;50.720;7.452;2022-09-13T05:21:41;7.10;;;3.83;;
30553;SDS011;17335;50.720;7.452;2022-09-13T05:24:08;11.82;;;3.85;;
30553;SDS011;17335;50.720;7.452;2022-09-13T05:26:34;9.88;;;3.90;;
30553;SDS011;17335;50.720;7.452;2022-09-13T05:29:01;7.60;;;4.00;;
30553;SDS011;17335;50.720;7.452;2022-09-13T05:31:31;6.00;;;3.60;;
30553;SDS011;17335;50.720;7.452;2022-09-13T05:34:00;8.15;;;3.85;;
30553;SDS011;17335;50.720;7.452;2022-09-13T05:36:28;6.30;;;3.95;;
30553;SDS011;17335;50.720;7.452;2022-09-13T05:38:55;5.90;;;3.58;;
30553;SDS011;17335;50.720;7.452;2022-09-13T05:41:42;5.75;;;3.45;;
30553;SDS011;17335;50.720;7.452;2022-09-13T05:44:10;5.75;;;3.50;;
30553;SDS011;17335;50.720;7.452;2022-09-13T05:46:38;6.95;;;3.88;;
30553;SDS011;17335;50.720;7.452;2022-09-13T05:49:06;5.53;;;3.22;;
30553;SDS011;17335;50.720;7.452;2022-09-13T05:51:32;7.13;;;3.42;;
30553;SDS011;17335;50.720;7.452;2022-09-13T05:53:58;7.40;;;3.95;;
30553;SDS011;17335;50.720;7.452;2022-09-13T05:56:26;6.50;;;3.42;;
30553;SDS011;17335;50.720;7.452;2022-09-13T05:58:54;9.85;;;3.10;;
30553;SDS011;17335;50.720;7.452;2022-09-13T06:01:22;7.18;;;3.72;;
30553;SDS011;17335;50.720;7.452;2022-09-13T06:03:51;5.10;;;2.85;;
30553;SDS011;17335;50.720;7.452;2022-09-13T06:06:19;5.03;;;3.15;;
30553;SDS011;17335;50.720;7.452;2022-09-13T06:08:46;7.35;;;3.30;;
30553;SDS011;17335;50.720;7.452;2022-09-13T06:11:13;6.68;;;3.20;;
30553;SDS011;17335;50.720;7.452;2022-09-13T06:13:40;4.68;;;3.25;;
30553;SDS011;17335;50.720;7.452;2022-09-13T06:16:09;5.35;;;3.10;;
30553;SDS011;17335;50.720;7.452;2022-09-13T06:18:37;5.22;;;3.28;;
30553;SDS011;17335;50.720;7.452;2022-09-13T06:21:05;4.35;;;2.80;;
30553;SDS011;17335;50.720;7.452;2022-09-13T06:23:33;5.22;;;2.53;;
30553;SDS011;17335;50.720;7.452;2022-09-13T06:26:01;5.28;;;2.75;;
30553;SDS011;17335;50.720;7.452;2022-09-13T06:28:32;5.00;;;2.80;;
30553;SDS011;17335;50.720;7.452;2022-09-13T06:31:03;4.75;;;3.00;;
30553;SDS011;17335;50.720;7.452;2022-09-13T06:33:35;4.88;;;3.08;;
30553;SDS011;17335;50.720;7.452;2022-09-13T06:36:04;3.83;;;2.58;;
30553;SDS011;17335;50.720;7.452;2022-09-13T06:38:32;4.78;;;2.92;;
30553;SDS011;17335;50.720;7.452;2022-09-13T06:41:00;4.97;;;2.90;;
30553;SDS011;17335;50.720;7.452;2022-09-13T06:43:27;7.93;;;3.13;;
30553;SDS011;17335;50.720;7.452;2022-09-13T06:45:57;8.45;;;3.13;;
30553;SDS011;17335;50.720;7.452;2022-09-13T06:48:32;4.78;;;3.08;;
30553;SDS011;17335;50.720;7.452;2022-09-13T06:51:00;6.60;;;3.60;;
30553;SDS011;17335;50.720;7.452;2022-09-13T06:53:28;5.05;;;3.33;;
30553;SDS011;17335;50.720;7.452;2022-09-13T06:55:59;6.57;;;3.47;;
30553;SDS011;17335;50.720;7.452;2022-09-13T06:58:28;7.65;;;3.22;;
30553;SDS011;17335;50.720;7.452;2022-09-13T07:01:03;5.63;;;3.10;;
30553;SDS011;17335;50.720;7.452;2022-09-13T07:03:38;5.82;;;3.10;;
30553;SDS011;17335;50.720;7.452;2022-09-13T07:06:17;7.65;;;3.85;;
30553;SDS011;17335;50.720;7.452;2022-09-13T07:08:48;5.00;;;2.58;;
30553;SDS011;17335;50.720;7.452;2022-09-13T07:11:17;6.55;;;3.15;;
30553;SDS011;17335;50.720;7.452;2022-09-13T07:13:51;4.80;;;2.92;;
30553;SDS011;17335;50.720;7.452;2022-09-13T07:16:22;5.70;;;2.58;;
30553;SDS011;17335;50.720;7.452;2022-09-13T07:18:50;5.18;;;2.60;;
30553;SDS011;17335;50.720;7.452;2022-09-13T07:21:18;4.22;;;2.40;;
30553;SDS011;17335;50.720;7.452;2022-09-13T07:23:45;3.92;;;2.47;;
30553;SDS011;17335;50.720;7.452;2022-09-13T07:26:12;7.88;;;2.80;;
30553;SDS011;17335;50.720;7.452;2022-09-13T07:28:41;4.63;;;2.33;;
30553;SDS011;17335;50.720;7.452;2022-09-13T07:33:42;6.55;;;2.35;;
30553;SDS011;17335;50.720;7.452;2022-09-13T07:36:09;3.38;;;1.98;;
30553;SDS011;17335;50.720;7.452;2022-09-13T07:38:38;8.43;;;2.40;;
30553;SDS011;17335;50.720;7.452;2022-09-13T07:41:06;4.47;;;2.10;;
30553;SDS011;17335;50.720;7.452;2022-09-13T07:43:36;5.68;;;2.47;;
30553;SDS011;17335;50.720;7.452;2022-09-13T07:46:07;4.55;;;2.20;;
30553;SDS011;17335;50.720;7.452;2022-09-13T07:48:36;3.47;;;2.20;;
30553;SDS011;17335;50.720;7.452;2022-09-13T07:51:05;3.85;;;2.30;;
30553;SDS011;17335;50.720;7.452;2022-09-13T07:53:34;5.75;;;2.40;;
30553;SDS011;17335;50.720;7.452;2022-09-13T07:56:05;4.28;;;2.05;;
30553;SDS011;17335;50.720;7.452;2022-09-13T07:58:43;5.63;;;2.30;;
30553;SDS011;17335;50.720;7.452;2022-09-13T08:01:45;7.05;;;2.47;;
30553;SDS011;17335;50.720;7.452;2022-09-13T08:04:06;7.80;;;2.10;;
30553;SDS011;17335;50.720;7.452;2022-09-13T08:06:38;4.20;;;2.20;;
30553;SDS011;17335;50.720;7.452;2022-09-13T08:09:06;4.07;;;1.80;;
30553;SDS011;17335;50.720;7.452;2022-09-13T08:11:35;5.30;;;2.03;;
30553;SDS011;17335;50.720;7.452;2022-09-13T08:14:04;4.40;;;2.15;;
30553;SDS011;17335;50.720;7.452;2022-09-13T08:16:32;3.70;;;2.20;;
30553;SDS011;17335;50.720;7.452;2022-09-13T08:19:00;3.65;;;2.40;;
30553;SDS011;17335;50.720;7.452;2022-09-13T08:21:33;2.95;;;2.03;;
30553;SDS011;17335;50.720;7.452;2022-09-13T08:24:02;3.88;;;2.28;;
30553;SDS011;17335;50.720;7.452;2022-09-13T08:26:31;3.10;;;2.08;;
30553;SDS011;17335;50.720;7.452;2022-09-13T08:28:59;4.50;;;2.40;;
30553;SDS011;17335;50.720;7.452;2022-09-13T08:31:27;3.08;;;2.00;;
30553;SDS011;17335;50.720;7.452;2022-09-13T08:33:54;2.65;;;1.88;;
30553;SDS011;17335;50.720;7.452;2022-09-13T08:36:23;10.30;;;3.90;;
30553;SDS011;17335;50.720;7.452;2022-09-13T08:38:54;3.60;;;2.00;;
30553;SDS011;17335;50.720;7.452;2022-09-13T08:49:59;3.88;;;2.03;;
30553;SDS011;17335;50.720;7.452;2022-09-13T08:52:34;3.60;;;1.77;;
30553;SDS011;17335;50.720;7.452;2022-09-13T08:55:47;8.52;;;2.70;;
30553;SDS011;17335;50.720;7.452;2022-09-13T09:01:11;3.97;;;2.05;;
30553;SDS011;17335;50.720;7.452;2022-09-13T09:04:00;3.15;;;2.15;;
30553;SDS011;17335;50.720;7.452;2022-09-13T09:06:46;4.20;;;2.10;;
30553;SDS011;17335;50.720;7.452;2022-09-13T09:09:16;2.90;;;1.80;;
30553;SDS011;17335;50.720;7.452;2022-09-13T09:14:20;3.45;;;2.08;;
30553;SDS011;17335;50.720;7.452;2022-09-13T09:16:56;3.17;;;1.60;;
30553;SDS011;17335;50.720;7.452;2022-09-13T09:19:32;4.20;;;1.70;;
30553;SDS011;17335;50.720;7.452;2022-09-13T09:22:03;3.45;;;1.88;;
30553;SDS011;17335;50.720;7.452;2022-09-13T09:24:36;3.38;;;1.80;;
30553;SDS011;17335;50.720;7.452;2022-09-13T09:27:14;3.17;;;1.80;;
30553;SDS011;17335;50.720;7.452;2022-09-13T09:29:41;3.22;;;1.92;;
30553;SDS011;17335;50.720;7.452;2022-09-13T09:37:27;4.10;;;1.50;;
30553;SDS011;17335;50.720;7.452;2022-09-13T09:39:59;3.05;;;1.98;;
30553;SDS011;17335;50.720;7.452;2022-09-13T09:42:31;3.92;;;1.88;;
30553;SDS011;17335;50.720;7.452;2022-09-13T09:45:17;2.67;;;1.40;;
30553;SDS011;17335;50.720;7.452;2022-09-13T09:47:49;2.45;;;1.77;;
30553;SDS011;17335;50.720;7.452;2022-09-13T09:50:17;6.05;;;1.95;;
30553;SDS011;17335;50.720;7.452;2022-09-13T09:52:58;2.72;;;1.88;;
30553;SDS011;17335;50.720;7.452;2022-09-13T09:55:57;3.05;;;1.70;;
30553;SDS011;17335;50.720;7.452;2022-09-13T09:58:40;3.28;;;1.73;;
30553;SDS011;17335;50.720;7.452;2022-09-13T10:06:26;2.45;;;1.40;;
30553;SDS011;17335;50.720;7.452;2022-09-13T10:08:56;4.18;;;1.80;;
30553;SDS011;17335;50.720;7.452;2022-09-13T10:11:41;3.45;;;1.45;;
30553;SDS011;17335;50.720;7.452;2022-09-13T10:17:00;2.00;;;1.25;;
30553;SDS011;17335;50.720;7.452;2022-09-13T10:19:30;2.70;;;1.50;;
30553;SDS011;17335;50.720;7.452;2022-09-13T10:22:01;4.85;;;1.40;;
30553;SDS011;17335;50.720;7.452;2022-09-13T10:24:31;1.95;;;1.30;;
30553;SDS011;17335;50.720;7.452;2022-09-13T10:26:58;2.47;;;1.30;;
30553;SDS011;17335;50.720;7.452;2022-09-13T10:29:25;2.67;;;1.35;;
30553;SDS011;17335;50.720;7.452;2022-09-13T10:31:54;3.28;;;1.50;;
30553;SDS011;17335;50.720;7.452;2022-09-13T10:34:29;3.38;;;1.65;;
30553;SDS011;17335;50.720;7.452;2022-09-13T10:36:59;2.58;;;1.30;;
30553;SDS011;17335;50.720;7.452;2022-09-13T10:39:30;2.60;;;1.45;;
30553;SDS011;17335;50.720;7.452;2022-09-13T10:42:02;3.67;;;1.35;;
30553;SDS011;17335;50.720;7.452;2022-09-13T10:47:21;2.03;;;1.23;;
30553;SDS011;17335;50.720;7.452;2022-09-13T10:49:52;2.47;;;1.65;;
30553;SDS011;17335;50.720;7.452;2022-09-13T10:52:41;2.72;;;1.40;;
30553;SDS011;17335;50.720;7.452;2022-09-13T10:57:46;2.90;;;1.70;;
30553;SDS011;17335;50.720;7.452;2022-09-13T11:00:14;4.93;;;1.58;;
30553;SDS011;17335;50.720;7.452;2022-09-13T11:02:45;2.47;;;1.30;;
30553;SDS011;17335;50.720;7.452;2022-09-13T11:13:25;4.47;;;1.45;;
30553;SDS011;17335;50.720;7.452;2022-09-13T11:16:03;3.92;;;1.48;;
30553;SDS011;17335;50.720;7.452;2022-09-13T11:31:37;3.85;;;1.88;;
30553;SDS011;17335;50.720;7.452;2022-09-13T11:43:09;3.45;;;1.60;;
30553;SDS011;17335;50.720;7.452;2022-09-13T11:51:40;3.90;;;2.00;;
30553;SDS011;17335;50.720;7.452;2022-09-13T11:57:29;3.42;;;1.77;;
30553;SDS011;17335;50.720;7.452;2022-09-13T11:59:57;2.55;;;1.40;;
30553;SDS011;17335;50.720;7.452;2022-09-13T12:02:39;4.25;;;1.50;;
30553;SDS011;17335;50.720;7.452;2022-09-13T12:07:53;4.72;;;1.40;;
30553;SDS011;17335;50.720;7.452;2022-09-13T12:10:26;3.25;;;1.42;;
30553;SDS011;17335;50.720;7.452;2022-09-13T12:12:57;2.42;;;1.30;;
30553;SDS011;17335;50.720;7.452;2022-09-13T12:18:15;1.90;;;1.20;;
30553;SDS011;17335;50.720;7.452;2022-09-13T12:23:23;4.50;;;1.58;;
30553;SDS011;17335;50.720;7.452;2022-09-13T12:25:57;2.58;;;1.30;;
30553;SDS011;17335;50.720;7.452;2022-09-13T12:29:17;4.47;;;1.90;;
30553;SDS011;17335;50.720;7.452;2022-09-13T12:31:21;1.88;;;1.20;;
30553;SDS011;17335;50.720;7.452;2022-09-13T12:33:51;2.42;;;1.15;;
30553;SDS011;17335;50.720;7.452;2022-09-13T12:39:17;3.80;;;1.30;;
30553;SDS011;17335;50.720;7.452;2022-09-13T12:50:21;3.63;;;1.23;;
30553;SDS011;17335;50.720;7.452;2022-09-13T12:59:17;2.40;;;1.27;;
30553;SDS011;17335;50.720;7.452;2022-09-13T13:01:47;3.67;;;1.50;;
30553;SDS011;17335;50.720;7.452;2022-09-13T13:07:04;4.88;;;1.48;;
30553;SDS011;17335;50.720;7.452;2022-09-13T13:09:43;4.35;;;1.50;;
30553;SDS011;17335;50.720;7.452;2022-09-13T13:12:32;3.65;;;1.52;;
30553;SDS011;17335;50.720;7.452;2022-09-13T13:33:53;2.88;;;1.50;;
30553;SDS011;17335;50.720;7.452;2022-09-13T13:36:26;2.58;;;1.50;;
30553;SDS011;17335;50.720;7.452;2022-09-13T13:38:55;2.95;;;1.48;;
30553;SDS011;17335;50.720;7.452;2022-09-13T13:46:43;2.50;;;1.38;;
30553;SDS011;17335;50.720;7.452;2022-09-13T13:57:30;4.03;;;1.77;;
30553;SDS011;17335;50.720;7.452;2022-09-13T14:02:30;3.15;;;1.60;;
30553;SDS011;17335;50.720;7.452;2022-09-13T14:07:51;3.20;;;1.50;;
30553;SDS011;17335;50.720;7.452;2022-09-13T14:16:22;3.70;;;1.50;;
30553;SDS011;17335;50.720;7.452;2022-09-13T14:24:47;2.40;;;1.40;;
30553;SDS011;17335;50.720;7.452;2022-09-13T14:27:22;3.65;;;1.75;;
30553;SDS011;17335;50.720;7.452;2022-09-13T14:29:52;5.63;;;1.45;;
30553;SDS011;17335;50.720;7.452;2022-09-13T14:32:22;3.08;;;1.40;;
30553;SDS011;17335;50.720;7.452;2022-09-13T14:37:26;4.93;;;1.33;;
30553;SDS011;17335;50.720;7.452;2022-09-13T14:42:26;2.45;;;1.30;;
30553;SDS011;17335;50.720;7.452;2022-09-13T14:45:11;4.13;;;1.30;;
30553;SDS011;17335;50.720;7.452;2022-09-13T14:47:44;3.90;;;1.20;;
30553;SDS011;17335;50.720;7.452;2022-09-13T14:50:21;4.57;;;1.48;;
30553;SDS011;17335;50.720;7.452;2022-09-13T14:53:01;3.17;;;1.33;;
30553;SDS011;17335;50.720;7.452;2022-09-13T14:55:36;7.18;;;1.52;;
30553;SDS011;17335;50.720;7.452;2022-09-13T14:58:16;3.10;;;1.50;;
30553;SDS011;17335;50.720;7.452;2022-09-13T15:00:57;3.40;;;1.45;;
30553;SDS011;17335;50.720;7.452;2022-09-13T15:03:26;3.65;;;1.30;;
30553;SDS011;17335;50.720;7.452;2022-09-13T15:05:54;2.20;;;1.40;;
30553;SDS011;17335;50.720;7.452;2022-09-13T15:10:59;3.55;;;1.70;;
30553;SDS011;17335;50.720;7.452;2022-09-13T15:13:27;3.47;;;1.48;;
30553;SDS011;17335;50.720;7.452;2022-09-13T15:15:54;4.40;;;1.50;;
30553;SDS011;17335;50.720;7.452;2022-09-13T15:18:31;6.75;;;1.50;;
30553;SDS011;17335;50.720;7.452;2022-09-13T15:21:12;2.65;;;1.60;;
30553;SDS011;17335;50.720;7.452;2022-09-13T15:23:42;5.80;;;1.90;;
30553;SDS011;17335;50.720;7.452;2022-09-13T15:26:19;2.97;;;1.80;;
30553;SDS011;17335;50.720;7.452;2022-09-13T15:28:50;4.32;;;1.92;;
30553;SDS011;17335;50.720;7.452;2022-09-13T15:31:28;4.25;;;1.50;;
30553;SDS011;17335;50.720;7.452;2022-09-13T15:34:09;3.75;;;1.70;;
30553;SDS011;17335;50.720;7.452;2022-09-13T15:36:43;3.58;;;1.67;;
30553;SDS011;17335;50.720;7.452;2022-09-13T15:39:15;2.78;;;1.52;;
30553;SDS011;17335;50.720;7.452;2022-09-13T15:41:50;4.20;;;2.20;;
30553;SDS011;17335;50.720;7.452;2022-09-13T15:44:17;6.50;;;2.15;;
30553;SDS011;17335;50.720;7.452;2022-09-13T15:46:49;12.88;;;2.15;;
30553;SDS011;17335;50.720;7.452;2022-09-13T15:49:18;3.42;;;1.90;;
30553;SDS011;17335;50.720;7.452;2022-09-13T15:51:52;4.35;;;1.75;;
30553;SDS011;17335;50.720;7.452;2022-09-13T15:54:20;3.13;;;1.77;;
30553;SDS011;17335;50.720;7.452;2022-09-13T15:56:50;4.15;;;1.70;;
30553;SDS011;17335;50.720;7.452;2022-09-13T15:59:17;4.95;;;1.75;;
30553;SDS011;17335;50.720;7.452;2022-09-13T16:01:49;6.20;;;2.15;;
30553;SDS011;17335;50.720;7.452;2022-09-13T16:04:16;4.57;;;1.80;;
30553;SDS011;17335;50.720;7.452;2022-09-13T16:06:44;2.15;;;1.45;;
30553;SDS011;17335;50.720;7.452;2022-09-13T16:11:45;2.30;;;1.60;;
30553;SDS011;17335;50.720;7.452;2022-09-13T16:14:13;3.47;;;1.60;;
30553;SDS011;17335;50.720;7.452;2022-09-13T16:16:40;4.20;;;1.70;;
30553;SDS011;17335;50.720;7.452;2022-09-13T16:19:18;4.18;;;1.67;;
30553;SDS011;17335;50.720;7.452;2022-09-13T16:21:46;2.13;;;1.48;;
30553;SDS011;17335;50.720;7.452;2022-09-13T16:24:13;3.45;;;1.63;;
30553;SDS011;17335;50.720;7.452;2022-09-13T16:26:40;5.38;;;1.30;;
30553;SDS011;17335;50.720;7.452;2022-09-13T16:29:06;3.30;;;1.60;;
30553;SDS011;17335;50.720;7.452;2022-09-13T16:31:35;3.53;;;2.13;;
30553;SDS011;17335;50.720;7.452;2022-09-13T16:34:01;4.20;;;1.55;;
30553;SDS011;17335;50.720;7.452;2022-09-13T16:36:28;4.50;;;1.27;;
30553;SDS011;17335;50.720;7.452;2022-09-13T16:38:55;3.67;;;1.60;;
30553;SDS011;17335;50.720;7.452;2022-09-13T16:41:21;2.20;;;1.30;;
30553;SDS011;17335;50.720;7.452;2022-09-13T16:43:48;6.50;;;1.50;;
30553;SDS011;17335;50.720;7.452;2022-09-13T16:46:15;2.80;;;1.45;;
30553;SDS011;17335;50.720;7.452;2022-09-13T16:48:43;3.88;;;1.50;;
30553;SDS011;17335;50.720;7.452;2022-09-13T16:51:10;3.45;;;1.50;;
30553;SDS011;17335;50.720;7.452;2022-09-13T16:53:38;9.07;;;1.80;;
30553;SDS011;17335;50.720;7.452;2022-09-13T16:56:11;3.90;;;1.50;;
30553;SDS011;17335;50.720;7.452;2022-09-13T16:58:40;3.50;;;1.20;;
30553;SDS011;17335;50.720;7.452;2022-09-13T17:01:09;7.63;;;1.42;;
30553;SDS011;17335;50.720;7.452;2022-09-13T17:03:36;4.43;;;1.55;;
30553;SDS011;17335;50.720;7.452;2022-09-13T17:06:05;4.78;;;1.80;;
30553;SDS011;17335;50.720;7.452;2022-09-13T17:08:33;5.10;;;1.63;;
30553;SDS011;17335;50.720;7.452;2022-09-13T17:11:09;5.60;;;1.50;;
30553;SDS011;17335;50.720;7.452;2022-09-13T17:13:37;4.38;;;1.95;;
30553;SDS011;17335;50.720;7.452;2022-09-13T17:16:05;2.55;;;1.33;;
30553;SDS011;17335;50.720;7.452;2022-09-13T17:18:33;3.47;;;1.42;;
30553;SDS011;17335;50.720;7.452;2022-09-13T17:21:00;2.47;;;1.52;;
30553;SDS011;17335;50.720;7.452;2022-09-13T17:23:26;3.47;;;1.58;;
30553;SDS011;17335;50.720;7.452;2022-09-13T17:25:53;4.40;;;1.90;;
30553;SDS011;17335;50.720;7.452;2022-09-13T17:28:19;3.00;;;1.50;;
30553;SDS011;17335;50.720;7.452;2022-09-13T17:30:46;3.67;;;1.73;;
30553;SDS011;17335;50.720;7.452;2022-09-13T17:33:13;3.97;;;1.50;;
30553;SDS011;17335;50.720;7.452;2022-09-13T17:35:39;12.90;;;2.13;;
30553;SDS011;17335;50.720;7.452;2022-09-13T17:38:08;13.02;;;2.20;;
30553;SDS011;17335;50.720;7.452;2022-09-13T17:40:35;4.90;;;2.00;;
30553;SDS011;17335;50.720;7.452;2022-09-13T17:43:01;3.85;;;1.73;;
30553;SDS011;17335;50.720;7.452;2022-09-13T17:45:28;4.45;;;1.85;;
30553;SDS011;17335;50.720;7.452;2022-09-13T17:47:55;4.65;;;1.85;;
30553;SDS011;17335;50.720;7.452;2022-09-13T17:50:24;4.90;;;2.47;;
30553;SDS011;17335;50.720;7.452;2022-09-13T17:52:50;3.00;;;1.73;;
30553;SDS011;17335;50.720;7.452;2022-09-13T17:55:17;4.05;;;2.10;;
30553;SDS011;17335;50.720;7.452;2022-09-13T17:57:46;3.42;;;1.95;;
30553;SDS011;17335;50.720;7.452;2022-09-13T18:00:14;3.65;;;2.05;;
30553;SDS011;17335;50.720;7.452;2022-09-13T18:02:45;5.20;;;2.45;;
30553;SDS011;17335;50.720;7.452;2022-09-13T18:05:12;5.07;;;2.28;;
30553;SDS011;17335;50.720;7.452;2022-09-13T18:07:39;3.25;;;1.77;;
30553;SDS011;17335;50.720;7.452;2022-09-13T18:10:05;4.10;;;2.20;;
30553;SDS011;17335;50.720;7.452;2022-09-13T18:12:50;3.40;;;1.80;;
30553;SDS011;17335;50.720;7.452;2022-09-13T18:15:17;5.07;;;2.00;;
30553;SDS011;17335;50.720;7.452;2022-09-13T18:17:43;4.75;;;2.03;;
30553;SDS011;17335;50.720;7.452;2022-09-13T18:20:10;3.53;;;1.85;;
30553;SDS011;17335;50.720;7.452;2022-09-13T18:22:36;5.80;;;2.00;;
30553;SDS011;17335;50.720;7.452;2022-09-13T18:25:04;4.63;;;2.30;;
30553;SDS011;17335;50.720;7.452;2022-09-13T18:27:32;5.72;;;2.40;;
30553;SDS011;17335;50.720;7.452;2022-09-13T18:29:58;3.35;;;1.98;;
30553;SDS011;17335;50.720;7.452;2022-09-13T18:32:26;4.07;;;2.10;;
30553;SDS011;17335;50.720;7.452;2022-09-13T18:34:52;3.53;;;1.92;;
30553;SDS011;17335;50.720;7.452;2022-09-13T18:37:19;4.35;;;2.25;;
30553;SDS011;17335;50.720;7.452;2022-09-13T18:39:45;4.43;;;2.10;;
30553;SDS011;17335;50.720;7.452;2022-09-13T18:42:12;4.05;;;2.30;;
30553;SDS011;17335;50.720;7.452;2022-09-13T18:44:39;4.32;;;2.50;;
30553;SDS011;17335;50.720;7.452;2022-09-13T18:47:05;4.32;;;2.20;;
30553;SDS011;17335;50.720;7.452;2022-09-13T18:49:33;5.03;;;2.22;;
30553;SDS011;17335;50.720;7.452;2022-09-13T18:52:00;5.93;;;2.30;;
30553;SDS011;17335;50.720;7.452;2022-09-13T18:54:27;4.43;;;2.30;;
30553;SDS011;17335;50.720;7.452;2022-09-13T18:56:53;10.93;;;3.00;;
30553;SDS011;17335;50.720;7.452;2022-09-13T18:59:20;9.35;;;2.58;;
30553;SDS011;17335;50.720;7.452;2022-09-13T19:01:47;6.88;;;2.88;;
30553;SDS011;17335;50.720;7.452;2022-09-13T19:04:18;4.75;;;2.53;;